Pine Hill, Alabama
Current Conditions -  °F | °C
As of 9:15 AM on Monday 24 Nov 2014 (Local Time) from KDYA Reporting Station
Scattered Clouds Scattered Clouds  
Wind Chill: 67°   Ceiling: Unl
Heat Index: 67°   Visibility: 10mi
Dew Point: 55°   Wind: 10mph
Humidity: 66%   Direction: 280°W
Pressure: 29.85"   Gusts: NA
Location:  31.98°N, 87.59°W
Report Text: KDYA 241515Z AUTO 28009KT 10SM SCT028 SCT033 20/13 A2985 RMK AO2 T01950129
Loading
Personal Weather Stations






























Interactive Weather Map New forecast layout! Learn more

10-Day Weather Forecast

Advertisements
Track Severe Weather on mobile